Time;durP1;ratioP1;P1;durP2;ratioP2;P2;SDS_P1;SDS_P2;PMS_P1;PMS_P2;Temp;Humidity;BMP_temperature;BMP_pressure;BME280_temperature;BME280_humidity;BME280_pressure;Samples;Min_cycle;Max_cycle;Signal;HPM_P1;HPM_P2
2023/06/29 00:00:23;;;;;;;10.85;5.10;;;19.10;99.90;;;;;;5036440;28;20381;-74
2023/06/29 00:02:49;;;;;;;14.60;4.80;;;19.10;99.90;;;;;;5036367;28;20097;-74
2023/06/29 00:05:16;;;;;;;11.27;4.63;;;19.20;99.90;;;;;;5036408;28;20053;-75
2023/06/29 00:07:42;;;;;;;10.35;4.85;;;19.10;99.90;;;;;;5036300;28;20049;-74
2023/06/29 00:10:09;;;;;;;13.80;4.97;;;19.10;99.90;;;;;;5036279;28;20570;-74
2023/06/29 00:12:35;;;;;;;10.65;5.55;;;19.10;99.90;;;;;;5036022;28;20160;-74
2023/06/29 00:15:01;;;;;;;9.68;5.00;;;19.20;99.90;;;;;;5036347;28;20033;-74
2023/06/29 00:17:27;;;;;;;18.63;6.82;;;19.20;99.90;;;;;;5034862;28;20473;-74
2023/06/29 00:19:52;;;;;;;12.60;5.40;;;19.20;99.90;;;;;;5036073;28;20370;-75
2023/06/29 00:22:18;;;;;;;13.07;5.20;;;19.20;99.90;;;;;;5034699;28;20456;-75
2023/06/29 00:24:44;;;;;;;11.27;4.70;;;19.20;99.90;;;;;;5035972;28;20028;-74
2023/06/29 00:27:12;;;;;;;10.18;4.68;;;19.20;99.90;;;;;;5033813;28;20021;-74
2023/06/29 00:29:41;;;;;;;13.75;4.80;;;19.20;99.90;;;;;;5035881;28;20021;-74
2023/06/29 00:32:11;;;;;;;10.07;4.72;;;19.20;99.90;;;;;;5035841;28;20021;-74
2023/06/29 00:34:37;;;;;;;11.07;4.65;;;19.20;99.90;;;;;;5034525;28;20075;-74
2023/06/29 00:37:03;;;;;;;10.27;4.40;;;19.10;99.90;;;;;;5035743;28;20026;-74
2023/06/29 00:39:28;;;;;;;12.85;5.63;;;19.10;99.90;;;;;;5035745;28;20021;-74
2023/06/29 00:41:55;;;;;;;13.63;5.40;;;19.10;99.90;;;;;;5035798;28;20108;-74
2023/06/29 00:44:23;;;;;;;13.57;5.25;;;19.10;99.90;;;;;;5035597;28;20108;-74
2023/06/29 00:46:51;;;;;;;8.80;4.75;;;19.00;99.90;;;;;;5035589;28;20029;-74
2023/06/29 00:49:18;;;;;;;9.55;4.85;;;19.10;99.90;;;;;;5034206;28;20029;-74
2023/06/29 00:51:47;;;;;;;11.80;5.13;;;19.00;99.90;;;;;;5035512;28;20034;-74
2023/06/29 00:54:13;;;;;;;12.93;5.72;;;19.00;99.90;;;;;;5035438;28;20465;-74
2023/06/29 00:56:39;;;;;;;11.90;5.22;;;19.00;99.90;;;;;;5035716;28;20111;-74
2023/06/29 00:59:04;;;;;;;12.73;5.85;;;19.00;99.90;;;;;;5035438;28;20029;-74
2023/06/29 01:01:31;;;;;;;13.50;6.22;;;19.00;99.90;;;;;;5035240;28;20028;-74
2023/06/29 01:03:57;;;;;;;11.60;5.50;;;19.10;99.90;;;;;;5035248;28;20113;-74
2023/06/29 01:06:29;;;;;;;13.18;5.90;;;19.00;99.90;;;;;;5035191;28;20036;-74
2023/06/29 01:09:01;;;;;;;13.32;5.82;;;19.00;99.90;;;;;;5035251;28;20362;-74
2023/06/29 01:11:27;;;;;;;15.48;6.68;;;19.00;99.90;;;;;;5035799;28;20053;-74
2023/06/29 01:13:53;;;;;;;11.30;5.13;;;19.00;99.90;;;;;;5034892;28;20064;-75
2023/06/29 01:16:21;;;;;;;12.13;5.22;;;19.10;99.90;;;;;;5034927;28;20500;-74
2023/06/29 01:18:47;;;;;;;10.88;5.55;;;19.00;99.90;;;;;;5034904;28;20021;-74
2023/06/29 01:21:18;;;;;;;15.88;5.90;;;19.00;99.90;;;;;;5034976;28;20044;-74
2023/06/29 01:23:46;;;;;;;11.43;6.18;;;19.00;99.90;;;;;;5034830;28;20100;-74
2023/06/29 01:26:12;;;;;;;10.20;5.82;;;19.10;99.90;;;;;;5034954;28;20489;-74
2023/06/29 01:28:38;;;;;;;14.10;6.75;;;19.00;99.90;;;;;;5034839;28;20017;-74
2023/06/29 01:31:05;;;;;;;13.23;5.82;;;19.10;99.90;;;;;;5034365;28;20545;-74
2023/06/29 01:33:31;;;;;;;14.45;6.72;;;19.10;99.90;;;;;;5034691;28;20026;-74
2023/06/29 01:36:15;;;;;;;10.68;5.07;;;19.10;99.90;;;;;;5034570;28;20473;-75
2023/06/29 01:38:51;;;;;;;12.75;6.13;;;19.10;99.90;;;;;;5034539;28;20536;-74
2023/06/29 01:41:18;;;;;;;11.70;6.10;;;19.10;99.90;;;;;;5033391;28;20025;-74
2023/06/29 01:43:44;;;;;;;12.32;6.13;;;19.10;99.90;;;;;;5034510;28;20040;-75
2023/06/29 01:46:10;;;;;;;14.55;5.85;;;19.10;99.90;;;;;;5034495;28;20393;-74
2023/06/29 01:48:37;;;;;;;16.20;6.55;;;19.20;99.90;;;;;;5034544;28;20052;-74
2023/06/29 01:51:06;;;;;;;16.23;6.25;;;19.10;99.90;;;;;;5034413;28;20025;-74
2023/06/29 01:53:35;;;;;;;15.77;5.75;;;19.10;99.90;;;;;;5033173;28;20401;-74
2023/06/29 01:56:01;;;;;;;14.30;6.80;;;19.10;99.90;;;;;;5033358;28;20017;-75
2023/06/29 01:58:27;;;;;;;13.02;6.07;;;19.00;99.90;;;;;;5034134;28;20036;-74
2023/06/29 02:00:53;;;;;;;13.68;5.80;;;19.10;99.90;;;;;;5034665;28;20101;-74
2023/06/29 02:03:18;;;;;;;15.93;6.55;;;19.10;99.90;;;;;;5034047;28;20108;-74
2023/06/29 02:05:44;;;;;;;11.75;5.82;;;19.10;99.90;;;;;;5034579;28;20022;-74
2023/06/29 02:08:09;;;;;;;15.60;5.93;;;19.10;99.90;;;;;;5034114;28;20032;-74
2023/06/29 02:10:35;;;;;;;13.98;6.38;;;19.10;99.90;;;;;;5034632;28;20045;-74
2023/06/29 02:13:01;;;;;;;15.70;6.90;;;19.10;99.90;;;;;;5034125;28;20045;-74
2023/06/29 02:15:26;;;;;;;17.52;6.82;;;19.10;99.90;;;;;;5034001;28;20564;-75
2023/06/29 02:17:52;;;;;;;12.40;6.22;;;19.10;99.90;;;;;;5034461;28;20034;-74
2023/06/29 02:20:17;;;;;;;14.77;7.32;;;19.10;99.90;;;;;;5033742;28;20021;-74
2023/06/29 02:22:43;;;;;;;14.32;6.60;;;19.00;99.90;;;;;;5032824;28;20098;-75
2023/06/29 02:25:11;;;;;;;16.55;6.55;;;19.10;99.90;;;;;;5033791;28;20033;-74
2023/06/29 02:27:36;;;;;;;12.00;5.57;;;19.00;99.90;;;;;;5033789;28;20029;-74
2023/06/29 02:30:03;;;;;;;14.27;6.47;;;19.10;99.90;;;;;;5033665;28;20036;-75
2023/06/29 02:32:28;;;;;;;14.25;7.20;;;19.00;99.90;;;;;;5033465;28;20478;-75
2023/06/29 02:34:54;;;;;;;13.18;6.57;;;19.10;99.90;;;;;;5032490;28;20051;-74
2023/06/29 02:37:19;;;;;;;11.15;6.30;;;19.00;99.90;;;;;;5033942;28;20026;-74
2023/06/29 02:39:45;;;;;;;18.17;6.90;;;19.00;99.90;;;;;;5033846;28;20048;-75
2023/06/29 02:42:11;;;;;;;11.02;5.47;;;20.40;99.90;;;;;;5034057;28;20028;-74
2023/06/29 02:44:36;;;;;;;19.63;8.25;;;19.00;99.90;;;;;;5033420;28;20116;-74
2023/06/29 02:47:02;;;;;;;14.35;6.85;;;19.00;99.90;;;;;;5033919;28;20029;-74
2023/06/29 02:49:27;;;;;;;14.95;7.82;;;19.00;99.90;;;;;;5032976;28;20033;-74
2023/06/29 02:51:53;;;;;;;16.73;7.60;;;18.90;99.90;;;;;;5033282;28;20481;-74
2023/06/29 02:54:18;;;;;;;14.07;6.93;;;18.90;99.90;;;;;;5033242;28;20034;-75
2023/06/29 02:56:44;;;;;;;16.35;7.90;;;18.90;99.90;;;;;;5033538;28;20033;-74
2023/06/29 02:59:09;;;;;;;14.95;7.85;;;18.80;99.90;;;;;;5032315;28;20052;-74
2023/06/29 03:01:35;;;;;;;15.15;7.68;;;18.80;99.90;;;;;;5033785;28;20025;-74
2023/06/29 03:04:00;;;;;;;19.00;7.43;;;18.80;99.90;;;;;;5033176;28;20025;-74
2023/06/29 03:06:26;;;;;;;19.45;7.65;;;18.80;99.90;;;;;;5033216;28;20029;-75
2023/06/29 03:08:52;;;;;;;14.88;7.05;;;18.80;99.90;;;;;;5033239;28;20032;-74
2023/06/29 03:11:17;;;;;;;18.48;8.13;;;18.80;99.90;;;;;;5033697;28;20075;-74
2023/06/29 03:13:43;;;;;;;15.57;7.93;;;18.80;99.90;;;;;;5031641;28;20025;-74
2023/06/29 03:16:09;;;;;;;19.50;9.25;;;18.80;99.90;;;;;;5033155;28;20060;-75
2023/06/29 03:18:34;;;;;;;18.70;9.05;;;18.80;99.90;;;;;;5032965;28;20022;-74
2023/06/29 03:21:01;;;;;;;18.13;8.57;;;18.70;99.90;;;;;;5033068;28;20029;-74
2023/06/29 03:23:27;;;;;;;17.33;8.27;;;18.70;99.90;;;;;;5032984;28;20184;-74
2023/06/29 03:25:53;;;;;;;19.33;8.38;;;18.70;99.90;;;;;;5033058;28;20026;-75
2023/06/29 03:28:19;;;;;;;15.07;7.22;;;18.70;99.90;;;;;;5033016;28;20044;-74
2023/06/29 03:30:44;;;;;;;21.27;8.27;;;18.70;99.90;;;;;;5032947;28;20488;-75
2023/06/29 03:33:10;;;;;;;19.63;8.55;;;18.70;99.90;;;;;;5032905;28;20388;-74
2023/06/29 03:35:35;;;;;;;17.38;7.32;;;18.70;99.90;;;;;;5033106;28;20030;-75
2023/06/29 03:38:01;;;;;;;17.98;8.75;;;18.70;99.90;;;;;;5032921;28;20030;-74
2023/06/29 03:40:27;;;;;;;16.40;9.15;;;18.70;99.90;;;;;;5033022;28;20021;-74
2023/06/29 03:42:53;;;;;;;19.13;9.10;;;18.70;99.90;;;;;;5033160;28;20029;-74
2023/06/29 03:45:18;;;;;;;19.33;9.05;;;18.60;99.90;;;;;;5033485;28;20017;-74
2023/06/29 03:47:44;;;;;;;18.73;8.60;;;18.70;99.90;;;;;;5032838;28;20443;-74
2023/06/29 03:50:10;;;;;;;16.70;8.50;;;18.70;99.90;;;;;;5032859;28;20400;-74
2023/06/29 03:52:35;;;;;;;16.10;8.88;;;18.70;99.90;;;;;;5033142;28;20041;-74
2023/06/29 03:55:01;;;;;;;17.30;8.85;;;18.70;99.90;;;;;;5032875;28;20481;-74
2023/06/29 03:57:26;;;;;;;17.13;8.45;;;18.70;99.90;;;;;;5032658;28;20026;-75
2023/06/29 03:59:52;;;;;;;18.45;8.50;;;18.60;99.90;;;;;;5032753;28;20044;-74
2023/06/29 04:02:17;;;;;;;19.55;9.52;;;18.60;99.90;;;;;;5034635;28;20017;-74
2023/06/29 04:04:43;;;;;;;20.02;8.82;;;18.60;99.90;;;;;;5036993;28;20021;-74
2023/06/29 04:07:09;;;;;;;17.95;8.63;;;18.60;99.90;;;;;;5035127;28;20017;-74
2023/06/29 04:09:34;;;;;;;22.52;9.30;;;18.60;99.90;;;;;;5036311;28;20239;-74
2023/06/29 04:12:00;;;;;;;25.05;10.50;;;18.70;99.90;;;;;;5036831;28;20469;-74
2023/06/29 04:14:25;;;;;;;18.50;8.93;;;18.70;99.90;;;;;;5034933;28;20532;-75
2023/06/29 04:16:51;;;;;;;19.42;9.25;;;18.70;99.90;;;;;;5036208;28;20476;-75
2023/06/29 04:19:16;;;;;;;20.70;9.45;;;18.70;99.90;;;;;;5035224;28;20080;-74
2023/06/29 04:21:42;;;;;;;23.30;10.05;;;18.70;99.90;;;;;;5036712;28;20018;-74
2023/06/29 04:24:07;;;;;;;20.52;9.90;;;18.80;99.90;;;;;;5036607;28;20025;-75
2023/06/29 04:26:33;;;;;;;19.60;9.27;;;18.80;99.90;;;;;;5036179;28;20026;-74
2023/06/29 04:29:05;;;;;;;21.25;9.75;;;18.80;99.90;;;;;;5035993;28;20064;-74
2023/06/29 04:31:31;;;;;;;26.63;11.05;;;18.90;99.90;;;;;;5035918;28;20136;-74
2023/06/29 04:34:02;;;;;;;21.00;9.20;;;18.90;99.90;;;;;;5035866;28;20025;-74
2023/06/29 04:36:28;;;;;;;25.83;10.18;;;19.00;99.90;;;;;;5035745;28;20076;-74
2023/06/29 04:38:54;;;;;;;19.88;9.38;;;19.00;99.90;;;;;;5035807;28;20040;-74
2023/06/29 04:41:24;;;;;;;18.52;9.10;;;19.00;99.90;;;;;;5035735;28;20030;-74
2023/06/29 04:43:53;;;;;;;22.90;9.50;;;19.00;99.90;;;;;;5035595;28;20049;-75
2023/06/29 04:46:18;;;;;;;22.90;10.18;;;19.10;99.90;;;;;;5036208;28;20022;-74
2023/06/29 04:48:46;;;;;;;26.83;10.00;;;19.20;99.90;;;;;;5035592;28;20018;-75
2023/06/29 04:51:13;;;;;;;20.85;9.80;;;19.20;99.90;;;;;;5036282;28;20100;-74
2023/06/29 04:53:38;;;;;;;19.38;9.45;;;19.20;99.90;;;;;;5034240;28;20105;-74
2023/06/29 04:56:04;;;;;;;18.17;9.07;;;19.30;99.90;;;;;;5035408;28;20111;-74
2023/06/29 04:58:30;;;;;;;17.13;8.85;;;19.30;99.90;;;;;;5034119;28;20026;-74
2023/06/29 05:00:56;;;;;;;23.88;10.27;;;19.30;99.90;;;;;;5035349;28;20018;-74
2023/06/29 05:03:22;;;;;;;21.08;10.27;;;19.40;99.90;;;;;;5035267;28;20029;-74
2023/06/29 05:05:48;;;;;;;22.15;9.48;;;19.40;99.90;;;;;;5035378;28;20021;-74
2023/06/29 05:08:13;;;;;;;20.40;10.02;;;19.40;99.90;;;;;;5035266;28;20079;-74
2023/06/29 05:10:39;;;;;;;21.27;10.80;;;19.50;99.90;;;;;;5035426;28;20022;-74
2023/06/29 05:13:05;;;;;;;21.67;9.88;;;19.50;99.90;;;;;;5034532;28;20038;-74
2023/06/29 05:15:30;;;;;;;21.67;10.25;;;19.50;99.90;;;;;;5035077;28;20444;-74
2023/06/29 05:17:56;;;;;;;22.60;9.90;;;19.50;99.90;;;;;;5033736;28;20025;-74
2023/06/29 05:20:22;;;;;;;26.90;9.75;;;19.50;99.90;;;;;;5035071;28;20132;-75
2023/06/29 05:22:48;;;;;;;22.15;9.95;;;19.50;99.90;;;;;;5033542;28;20469;-74
2023/06/29 05:25:14;;;;;;;21.40;11.05;;;19.60;99.90;;;;;;5035372;28;20483;-74
2023/06/29 05:27:40;;;;;;;25.13;10.32;;;19.60;99.90;;;;;;5034840;28;20558;-75
2023/06/29 05:30:08;;;;;;;26.05;11.27;;;19.60;99.90;;;;;;5034989;28;20029;-74
2023/06/29 05:32:34;;;;;;;23.58;10.73;;;19.60;99.90;;;;;;5034782;28;20049;-74
2023/06/29 05:35:00;;;;;;;24.98;9.95;;;19.60;99.90;;;;;;5034669;28;20392;-74
2023/06/29 05:37:25;;;;;;;21.13;9.00;;;19.70;99.90;;;;;;5034563;28;20021;-74
2023/06/29 05:39:55;;;;;;;23.38;9.75;;;19.70;99.90;;;;;;5034696;28;20060;-74
2023/06/29 05:42:21;;;;;;;22.38;10.68;;;19.70;99.90;;;;;;5034540;28;20468;-74
2023/06/29 05:44:46;;;;;;;29.08;10.60;;;19.70;99.90;;;;;;5034502;28;20048;-74
2023/06/29 05:47:12;;;;;;;19.77;11.30;;;19.70;99.90;;;;;;5033720;28;20021;-74
2023/06/29 05:49:37;;;;;;;24.98;10.18;;;19.70;99.90;;;;;;5033215;28;20072;-74
2023/06/29 05:52:03;;;;;;;21.02;10.02;;;19.70;99.90;;;;;;5034839;28;20059;-74
2023/06/29 05:54:29;;;;;;;25.05;10.70;;;19.70;99.90;;;;;;5034201;28;20029;-74
2023/06/29 05:56:54;;;;;;;24.52;11.70;;;19.70;99.90;;;;;;5034054;28;20025;-75
2023/06/29 05:59:20;;;;;;;25.27;11.80;;;19.60;99.90;;;;;;5034215;28;20029;-75
2023/06/29 06:01:45;;;;;;;23.13;11.23;;;19.60;99.90;;;;;;5031573;28;20370;-75
2023/06/29 06:04:11;;;;;;;24.63;10.43;;;19.60;99.90;;;;;;5032903;28;20079;-75
2023/06/29 06:06:36;;;;;;;22.98;10.75;;;19.60;99.90;;;;;;5031622;28;20370;-75
2023/06/29 06:09:02;;;;;;;25.42;10.20;;;19.60;99.90;;;;;;5034494;28;20052;-75
2023/06/29 06:11:28;;;;;;;23.42;10.70;;;19.60;99.90;;;;;;5033178;28;20033;-75
2023/06/29 06:13:54;;;;;;;22.95;11.40;;;19.60;99.90;;;;;;5033760;28;20029;-75
2023/06/29 06:16:20;;;;;;;20.55;9.95;;;19.60;99.90;;;;;;5034361;28;20026;-75
2023/06/29 06:18:46;;;;;;;24.77;11.32;;;19.60;99.90;;;;;;5034282;28;20029;-75
2023/06/29 06:21:11;;;;;;;23.35;10.43;;;19.70;99.90;;;;;;5032559;28;20064;-74
2023/06/29 06:23:37;;;;;;;22.85;10.05;;;19.70;99.90;;;;;;5033614;28;20022;-75
2023/06/29 06:26:02;;;;;;;21.90;9.77;;;19.80;99.90;;;;;;5032985;28;20045;-75
2023/06/29 06:28:28;;;;;;;24.17;10.93;;;19.90;99.90;;;;;;5033719;28;20167;-75
2023/06/29 06:30:54;;;;;;;24.02;11.18;;;20.00;99.90;;;;;;5034327;28;20029;-75
2023/06/29 06:33:20;;;;;;;22.92;10.10;;;20.00;99.90;;;;;;5033569;28;20048;-75
2023/06/29 06:35:45;;;;;;;25.17;11.60;;;20.00;99.90;;;;;;5032301;28;20025;-75
2023/06/29 06:38:11;;;;;;;21.17;10.68;;;20.00;99.90;;;;;;5033537;28;20036;-75
2023/06/29 06:40:36;;;;;;;25.10;11.45;;;20.10;99.90;;;;;;5033578;28;20034;-75
2023/06/29 06:43:02;;;;;;;21.17;9.88;;;20.10;99.90;;;;;;5033395;28;20028;-74
2023/06/29 06:45:27;;;;;;;25.92;11.20;;;20.10;99.90;;;;;;5033392;28;20104;-75
2023/06/29 06:47:53;;;;;;;23.15;9.88;;;20.10;99.90;;;;;;5033352;28;20057;-75
2023/06/29 06:50:20;;;;;;;23.23;10.85;;;20.10;99.90;;;;;;5033485;28;20018;-75
2023/06/29 06:52:46;;;;;;;24.42;10.88;;;20.20;99.90;;;;;;5033617;28;20057;-75
2023/06/29 06:55:12;;;;;;;20.38;9.70;;;20.20;99.90;;;;;;5033344;28;20025;-75
2023/06/29 06:57:37;;;;;;;24.05;10.45;;;20.20;99.90;;;;;;5033233;28;20496;-75
2023/06/29 07:00:04;;;;;;;21.63;9.40;;;20.30;99.90;;;;;;5033766;28;20049;-75
2023/06/29 07:02:30;;;;;;;21.58;10.50;;;20.30;99.90;;;;;;5031518;28;20036;-75
2023/06/29 07:04:56;;;;;;;27.65;11.60;;;20.40;99.90;;;;;;5032334;28;20116;-75
2023/06/29 07:07:21;;;;;;;22.92;11.20;;;20.20;99.90;;;;;;5033307;28;20028;-75
2023/06/29 07:09:47;;;;;;;23.60;10.95;;;20.20;99.90;;;;;;5033156;28;20030;-75
2023/06/29 07:12:13;;;;;;;25.40;11.10;;;20.20;99.90;;;;;;5033063;28;20075;-75
2023/06/29 07:14:38;;;;;;;23.13;11.13;;;20.30;99.90;;;;;;5033031;28;20030;-75
2023/06/29 07:17:05;;;;;;;22.65;12.23;;;20.30;99.90;;;;;;5033571;28;20026;-75
2023/06/29 07:19:30;;;;;;;24.60;10.50;;;20.40;99.90;;;;;;5033311;28;20476;-75
2023/06/29 07:21:56;;;;;;;24.98;11.13;;;20.40;99.90;;;;;;5033067;28;20048;-75
2023/06/29 07:24:21;;;;;;;23.60;11.35;;;20.40;99.90;;;;;;5032849;28;20072;-75
2023/06/29 07:26:47;;;;;;;24.48;11.73;;;20.60;99.90;;;;;;5033011;28;20022;-75
2023/06/29 07:29:12;;;;;;;26.67;11.60;;;20.60;99.90;;;;;;5032954;28;20032;-75
2023/06/29 07:31:39;;;;;;;22.98;11.20;;;20.70;99.90;;;;;;5032960;28;20017;-75
2023/06/29 07:34:04;;;;;;;31.23;12.05;;;20.90;99.90;;;;;;5032814;28;20075;-75
2023/06/29 07:36:30;;;;;;;25.80;11.25;;;20.90;99.90;;;;;;5033357;28;20026;-75
2023/06/29 07:38:56;;;;;;;22.88;11.15;;;21.00;99.90;;;;;;5036713;28;20256;-75
2023/06/29 07:41:22;;;;;;;26.35;12.38;;;21.10;99.90;;;;;;5036840;28;20026;-75
2023/06/29 07:43:56;;;;;;;24.15;12.23;;;21.00;99.90;;;;;;5036690;28;20030;-75
2023/06/29 07:46:22;;;;;;;22.25;11.40;;;21.00;99.90;;;;;;5037348;28;20025;-75
2023/06/29 07:48:48;;;;;;;22.88;11.60;;;20.90;99.90;;;;;;5036679;28;20082;-75
2023/06/29 07:51:15;;;;;;;25.00;11.32;;;;;;;;;;5037066;28;20021;-75
2023/06/29 07:53:41;;;;;;;24.15;12.48;;;21.00;99.90;;;;;;5034957;28;20507;-75
2023/06/29 07:56:08;;;;;;;24.85;12.05;;;21.10;99.90;;;;;;5036436;28;20096;-75
2023/06/29 07:58:34;;;;;;;22.50;11.02;;;21.30;99.90;;;;;;5036390;28;20040;-76
2023/06/29 08:00:59;;;;;;;25.58;11.55;;;21.30;99.90;;;;;;5036517;28;20018;-75
2023/06/29 08:03:25;;;;;;;24.50;11.48;;;21.40;99.90;;;;;;5036443;28;20017;-75
2023/06/29 08:05:52;;;;;;;25.42;11.57;;;21.30;99.90;;;;;;5037048;28;20052;-75
2023/06/29 08:08:18;;;;;;;20.85;10.60;;;21.30;99.90;;;;;;5036845;28;20025;-75
2023/06/29 08:10:43;;;;;;;26.88;11.77;;;21.50;99.90;;;;;;5036334;28;20108;-75
2023/06/29 08:13:09;;;;;;;26.85;11.95;;;21.70;99.90;;;;;;5036165;28;20128;-75
2023/06/29 08:15:35;;;;;;;23.52;11.77;;;21.70;99.90;;;;;;5036180;28;20037;-75
2023/06/29 08:18:00;;;;;;;21.80;11.18;;;22.00;99.90;;;;;;5036138;28;20040;-76
2023/06/29 08:20:26;;;;;;;23.75;11.60;;;22.20;99.90;;;;;;5036660;28;20393;-74
2023/06/29 08:22:52;;;;;;;24.13;12.07;;;22.20;99.90;;;;;;5036076;28;20025;-75
2023/06/29 08:25:19;;;;;;;24.08;10.80;;;22.00;99.90;;;;;;5035954;28;20067;-74
2023/06/29 08:27:44;;;;;;;27.17;12.77;;;22.10;99.90;;;;;;5036067;28;20037;-75
2023/06/29 08:30:10;;;;;;;24.25;11.57;;;22.00;99.90;;;;;;5035915;28;20032;-75
2023/06/29 08:32:36;;;;;;;26.27;11.88;;;21.90;99.90;;;;;;5035844;28;20485;-75
2023/06/29 08:35:02;;;;;;;25.83;11.50;;;22.00;99.90;;;;;;5035834;28;20017;-75
2023/06/29 08:37:28;;;;;;;27.52;12.85;;;22.00;99.90;;;;;;5035739;28;20021;-75
2023/06/29 08:39:54;;;;;;;25.58;12.48;;;22.00;99.90;;;;;;5036274;28;20101;-75
2023/06/29 08:42:20;;;;;;;21.88;11.10;;;21.90;99.90;;;;;;5034431;28;20051;-74
2023/06/29 08:44:46;;;;;;;25.75;11.55;;;22.20;99.90;;;;;;5036240;28;20053;-75
2023/06/29 08:47:12;;;;;;;22.95;11.07;;;22.40;99.90;;;;;;5035188;28;20156;-75
2023/06/29 08:49:38;;;;;;;26.70;13.20;;;22.50;99.90;;;;;;5035316;28;20064;-75
2023/06/29 08:52:06;;;;;;;21.88;11.35;;;22.70;99.90;;;;;;5034267;28;20513;-75
2023/06/29 08:54:32;;;;;;;22.02;11.32;;;22.80;99.90;;;;;;5035377;28;20017;-75
2023/06/29 08:57:01;;;;;;;27.52;13.38;;;22.90;99.90;;;;;;5035356;28;20034;-75
2023/06/29 08:59:28;;;;;;;25.02;11.38;;;23.20;99.90;;;;;;5035405;28;20075;-75
2023/06/29 09:01:56;;;;;;;21.35;10.93;;;23.70;99.90;;;;;;5035434;28;20013;-75
2023/06/29 09:04:22;;;;;;;24.58;12.98;;;23.80;99.90;;;;;;5034107;28;20113;-74
2023/06/29 09:06:47;;;;;;;23.52;12.15;;;24.00;99.90;;;;;;5035277;28;20025;-75
2023/06/29 09:09:14;;;;;;;22.77;12.23;;;23.90;99.90;;;;;;5035255;28;20420;-75
2023/06/29 09:11:40;;;;;;;22.27;11.27;;;23.90;99.90;;;;;;5035741;28;20376;-75
2023/06/29 09:14:07;;;;;;;26.42;11.98;;;23.90;99.90;;;;;;5034933;28;20116;-75
2023/06/29 09:16:48;;;;;;;20.50;11.55;;;23.80;99.90;;;;;;5035103;28;20037;-75
2023/06/29 09:19:13;;;;;;;24.73;12.57;;;23.90;99.90;;;;;;5035108;28;20060;-75
2023/06/29 09:21:47;;;;;;;25.35;11.82;;;23.90;99.90;;;;;;5034950;28;20025;-75
2023/06/29 09:24:14;;;;;;;19.48;10.70;;;24.10;99.90;;;;;;5034929;28;20014;-75
2023/06/29 09:26:40;;;;;;;20.60;9.45;;;24.10;99.90;;;;;;5034992;28;20014;-75
2023/06/29 09:29:05;;;;;;;21.88;11.45;;;24.10;99.90;;;;;;5034985;28;20477;-75
2023/06/29 09:31:35;;;;;;;20.75;10.65;;;24.00;99.90;;;;;;5034817;28;20064;-75
2023/06/29 09:34:17;;;;;;;20.35;9.70;;;23.90;99.90;;;;;;5034875;28;20531;-75
2023/06/29 09:36:44;;;;;;;21.48;10.18;;;23.60;99.90;;;;;;5033430;28;20018;-75
2023/06/29 09:39:10;;;;;;;22.40;9.98;;;23.70;99.90;;;;;;5034718;28;20027;-75
2023/06/29 09:41:56;;;;;;;17.50;9.02;;;23.60;99.90;;;;;;5034653;28;20018;-75
2023/06/29 09:44:25;;;;;;;17.50;9.00;;;23.70;99.90;;;;;;5034579;28;20030;-75
2023/06/29 09:46:53;;;;;;;18.42;9.43;;;23.80;99.90;;;;;;5034569;28;20022;-75
2023/06/29 09:49:19;;;;;;;19.13;9.27;;;23.90;99.90;;;;;;5034453;28;20018;-75
2023/06/29 09:51:48;;;;;;;19.85;9.75;;;23.90;99.90;;;;;;5033177;28;20128;-75
2023/06/29 09:54:14;;;;;;;22.75;10.70;;;24.00;99.90;;;;;;5034379;28;20385;-75
2023/06/29 09:56:41;;;;;;;19.35;8.98;;;24.00;99.90;;;;;;5034222;28;20045;-75
2023/06/29 09:59:11;;;;;;;19.20;9.98;;;24.10;99.90;;;;;;5031816;28;20064;-75
2023/06/29 10:01:43;;;;;;;17.48;8.88;;;24.00;99.90;;;;;;5034026;28;20057;-75
2023/06/29 10:04:09;;;;;;;17.60;9.60;;;24.10;99.90;;;;;;5034092;28;20032;-74
2023/06/29 10:06:42;;;;;;;19.65;10.48;;;24.00;99.90;;;;;;5034061;28;20021;-75
2023/06/29 10:09:10;;;;;;;21.58;10.38;;;23.90;99.90;;;;;;5034086;28;20033;-75
2023/06/29 10:11:36;;;;;;;20.67;9.07;;;23.90;99.90;;;;;;5034008;28;20473;-75
2023/06/29 10:14:05;;;;;;;21.20;9.98;;;24.10;99.90;;;;;;5033712;28;20029;-75
2023/06/29 10:16:34;;;;;;;19.40;9.60;;;24.20;99.90;;;;;;5033833;28;20488;-75
2023/06/29 10:19:21;;;;;;;19.50;9.95;;;24.30;99.90;;;;;;5033907;28;20020;-75
2023/06/29 10:21:52;;;;;;;21.00;9.43;;;24.30;99.90;;;;;;5034369;28;20100;-75
2023/06/29 10:24:22;;;;;;;20.48;10.82;;;24.50;99.90;;;;;;5032455;28;20500;-75
2023/06/29 10:26:48;;;;;;;20.08;10.18;;;24.50;99.90;;;;;;5033760;28;20018;-75
2023/06/29 10:29:14;;;;;;;18.10;9.18;;;24.40;99.90;;;;;;5033779;28;20429;-74
2023/06/29 10:31:48;;;;;;;20.10;9.75;;;24.40;99.90;;;;;;5033697;28;20064;-75
2023/06/29 10:34:14;;;;;;;19.52;10.63;;;24.50;99.90;;;;;;5033457;28;20028;-75
2023/06/29 10:36:49;;;;;;;20.80;9.57;;;24.60;99.90;;;;;;5033707;28;20018;-75
2023/06/29 10:39:44;;;;;;;16.27;9.13;;;24.60;99.90;;;;;;5033585;28;20021;-75
2023/06/29 10:42:12;;;;;;;20.52;9.45;;;24.50;99.90;;;;;;5033533;28;20465;-75
2023/06/29 10:44:38;;;;;;;18.13;8.90;;;24.20;99.90;;;;;;5033809;28;20013;-74
2023/06/29 10:47:24;;;;;;;16.77;8.90;;;24.20;99.90;;;;;;5033475;28;20032;-75
2023/06/29 10:50:14;;;;;;;17.02;8.88;;;24.10;99.90;;;;;;5033431;28;20021;-75
2023/06/29 10:52:42;;;;;;;21.48;8.90;;;24.20;99.90;;;;;;5033327;28;20037;-75
2023/06/29 10:55:15;;;;;;;17.70;9.90;;;24.40;99.90;;;;;;5033375;28;20026;-75
2023/06/29 10:57:54;;;;;;;20.77;9.35;;;24.70;99.90;;;;;;5033251;28;20105;-75
2023/06/29 11:00:22;;;;;;;16.38;8.20;;;24.70;99.90;;;;;;5033398;28;20416;-75
2023/06/29 11:02:48;;;;;;;18.20;8.85;;;25.00;99.90;;;;;;5033257;28;20032;-75
2023/06/29 11:05:15;;;;;;;16.60;8.30;;;25.50;99.90;;;;;;5033263;28;20097;-75
2023/06/29 11:07:41;;;;;;;14.43;7.70;;;25.50;99.90;;;;;;5033787;28;20032;-75
2023/06/29 11:10:08;;;;;;;17.63;8.05;;;25.70;99.90;;;;;;5033169;28;20036;-75
2023/06/29 11:12:37;;;;;;;20.95;10.30;;;26.10;99.90;;;;;;5032778;28;20519;-75
2023/06/29 11:15:13;;;;;;;15.07;8.02;;;26.50;99.90;;;;;;5033198;28;20109;-75
2023/06/29 11:17:39;;;;;;;18.15;8.80;;;26.50;99.90;;;;;;5033109;28;20057;-75
2023/06/29 11:20:06;;;;;;;18.50;9.32;;;26.50;99.90;;;;;;5033115;28;20389;-75
2023/06/29 11:22:36;;;;;;;17.23;8.23;;;26.40;99.90;;;;;;5032040;28;20124;-75
2023/06/29 11:25:02;;;;;;;18.40;8.23;;;26.10;99.90;;;;;;5033060;28;20435;-75
2023/06/29 11:27:28;;;;;;;18.92;9.90;;;25.80;99.90;;;;;;5033030;28;20105;-75
2023/06/29 11:29:56;;;;;;;18.20;8.23;;;25.30;99.90;;;;;;5033101;28;20021;-75
2023/06/29 11:32:23;;;;;;;20.70;9.32;;;24.90;99.90;;;;;;5032893;28;20041;-75
2023/06/29 11:34:56;;;;;;;18.00;8.80;;;24.70;99.90;;;;;;5031689;28;20061;-75
2023/06/29 11:37:23;;;;;;;17.05;8.85;;;24.20;99.90;;;;;;5033452;28;20029;-74
2023/06/29 11:39:49;;;;;;;15.57;7.85;;;23.80;99.90;;;;;;5032969;28;20057;-75
2023/06/29 11:42:18;;;;;;;16.88;7.35;;;23.00;99.90;;;;;;5033405;28;20025;-74
2023/06/29 11:44:45;;;;;;;17.52;8.05;;;22.90;99.90;;;;;;5033475;28;20071;-74
2023/06/29 11:47:13;;;;;;;16.65;8.60;;;22.90;99.90;;;;;;5031608;28;20026;-75
2023/06/29 11:49:38;;;;;;;17.17;8.47;;;22.80;99.90;;;;;;5033027;28;20393;-75
2023/06/29 11:52:06;;;;;;;16.08;7.50;;;22.90;99.90;;;;;;5032811;28;20025;-74
2023/06/29 11:54:32;;;;;;;11.65;6.22;;;22.90;99.90;;;;;;5032762;28;20513;-75
2023/06/29 11:56:58;;;;;;;16.05;6.57;;;23.00;99.90;;;;;;5032837;28;20477;-75
2023/06/29 11:59:24;;;;;;;16.95;5.75;;;23.00;99.90;;;;;;5032854;28;20076;-75
2023/06/29 12:01:50;;;;;;;10.65;6.15;;;23.20;99.90;;;;;;5033301;28;20030;-75
2023/06/29 12:04:16;;;;;;;13.75;6.82;;;23.50;99.90;;;;;;5032805;28;20100;-75
2023/06/29 12:06:52;;;;;;;13.68;6.28;;;23.80;99.90;;;;;;5031658;28;20366;-75
2023/06/29 12:09:18;;;;;;;18.40;6.45;;;24.20;99.90;;;;;;5031482;28;20025;-75
2023/06/29 12:11:43;;;;;;;13.00;5.88;;;24.50;99.90;;;;;;5032720;28;20018;-75
2023/06/29 12:14:09;;;;;;;10.60;4.80;;;24.70;99.90;;;;;;5032422;28;20604;-75
2023/06/29 12:16:40;;;;;;;11.27;5.15;;;24.80;99.90;;;;;;5032612;28;20105;-75
2023/06/29 12:19:13;;;;;;;10.38;4.70;;;25.20;99.90;;;;;;5033144;28;20025;-75
2023/06/29 12:21:39;;;;;;;9.63;4.53;;;25.20;99.90;;;;;;5032606;28;20025;-75
2023/06/29 12:24:05;;;;;;;12.60;5.45;;;25.00;99.90;;;;;;5034972;28;20029;-75
2023/06/29 12:26:31;;;;;;;9.63;4.53;;;24.50;99.90;;;;;;5034789;28;20025;-75
2023/06/29 12:28:57;;;;;;;9.90;4.68;;;24.30;99.90;;;;;;5036077;28;20381;-75
2023/06/29 12:31:29;;;;;;;7.85;4.47;;;23.90;99.90;;;;;;5034735;28;20018;-75